createdAt,value
2023-01-25T00:01:59.818Z,4.55
2023-01-25T00:06:50.376Z,4.49
2023-01-25T00:11:41.603Z,4.55
2023-01-25T00:16:32.436Z,4.56
2023-01-25T00:21:31.867Z,4.55
2023-01-25T00:26:25.377Z,4.50
2023-01-25T00:31:29.929Z,4.47
2023-01-25T00:36:48.338Z,4.47
2023-01-25T00:41:38.949Z,4.55
2023-01-25T00:46:32.650Z,4.56
2023-01-25T00:51:24.059Z,4.52
2023-01-25T00:56:18.187Z,4.56
2023-01-25T01:01:12.117Z,4.50
2023-01-25T01:06:08.672Z,4.51
2023-01-25T01:11:06.430Z,4.46
2023-01-25T01:16:04.021Z,4.33
2023-01-25T01:20:56.299Z,4.44
2023-01-25T01:25:50.720Z,4.44
2023-01-25T01:30:42.675Z,4.40
2023-01-25T01:35:37.323Z,4.51
2023-01-25T01:40:29.174Z,4.46
2023-01-25T01:45:54.930Z,4.44
2023-01-25T01:50:59.551Z,4.38
2023-01-25T01:55:51.392Z,4.35
2023-01-25T02:00:45.125Z,4.39
2023-01-25T02:05:47.039Z,4.26
2023-01-25T02:10:42.048Z,4.13
2023-01-25T02:15:41.420Z,4.23
2023-01-25T02:20:41.468Z,4.18
2023-01-25T02:25:35.869Z,4.20
2023-01-25T02:30:30.112Z,4.14
2023-01-25T02:35:28.605Z,4.12
2023-01-25T02:40:20.410Z,4.10
2023-01-25T02:45:20.790Z,4.06
2023-01-25T02:50:16.147Z,4.04
2023-01-25T02:55:07.682Z,3.97
2023-01-25T02:59:59.008Z,3.91
2023-01-25T03:04:53.563Z,3.96
2023-01-25T03:09:49.174Z,4.00
2023-01-25T03:14:40.827Z,3.90
2023-01-25T03:19:33.515Z,3.93
2023-01-25T03:24:29.510Z,3.65
2023-01-25T03:29:20.963Z,3.99
2023-01-25T03:34:18.298Z,3.93
2023-01-25T03:39:08.669Z,3.97
2023-01-25T03:44:07.591Z,3.94
2023-01-25T03:48:59.119Z,3.88
2023-01-25T03:53:50.175Z,3.86
2023-01-25T03:58:43.744Z,3.94
2023-01-25T04:03:38.323Z,3.91
2023-01-25T04:08:31.427Z,3.85
2023-01-25T04:13:24.480Z,3.84
2023-01-25T04:18:18.747Z,3.81
2023-01-25T04:23:13.869Z,3.85
2023-01-25T04:28:06.117Z,3.82
2023-01-25T04:32:56.778Z,3.79
2023-01-25T04:37:58.456Z,3.85
2023-01-25T04:42:57.607Z,3.87
2023-01-25T04:47:48.986Z,3.86
2023-01-25T04:52:44.142Z,3.88
2023-01-25T04:57:35.544Z,3.78
2023-01-25T05:02:29.962Z,3.77
2023-01-25T05:07:20.333Z,3.81
2023-01-25T05:12:13.774Z,3.64
2023-01-25T05:17:19.478Z,3.68
2023-01-25T05:22:21.416Z,3.68
2023-01-25T05:27:17.699Z,3.64
2023-01-25T05:32:19.243Z,3.65
2023-01-25T05:37:16.466Z,3.65
2023-01-25T05:42:15.696Z,3.52
2023-01-25T05:47:06.923Z,3.57
2023-01-25T05:51:58.939Z,3.68
2023-01-25T05:57:04.128Z,3.72
2023-01-25T06:01:59.568Z,3.72
2023-01-25T06:06:51.351Z,3.58
2023-01-25T06:11:41.612Z,3.53
2023-01-25T06:16:35.911Z,3.46
2023-01-25T06:21:49.090Z,3.50
2023-01-25T06:26:40.176Z,3.52
2023-01-25T06:31:31.541Z,3.54
2023-01-25T06:36:29.068Z,3.48
2023-01-25T06:41:23.299Z,3.42
2023-01-25T06:46:15.917Z,3.45
2023-01-25T06:51:10.448Z,3.47
2023-01-25T06:56:06.359Z,3.49
2023-01-25T07:00:58.099Z,3.42
2023-01-25T07:05:49.863Z,3.49
2023-01-25T07:10:42.663Z,3.42
2023-01-25T07:15:38.237Z,3.39
2023-01-25T07:20:29.473Z,3.28
2023-01-25T07:25:20.879Z,3.26
2023-01-25T07:30:13.465Z,3.29
2023-01-25T07:35:08.240Z,3.26
2023-01-25T07:39:59.844Z,3.38
2023-01-25T07:44:51.667Z,3.35
2023-01-25T07:49:41.809Z,3.25
2023-01-25T07:54:36.161Z,3.34
2023-01-25T07:59:29.162Z,3.30
2023-01-25T08:04:21.306Z,3.32
2023-01-25T08:09:16.205Z,3.38
2023-01-25T08:14:11.832Z,3.37
2023-01-25T08:19:04.931Z,3.31
2023-01-25T08:23:56.324Z,3.34
2023-01-25T08:28:53.505Z,3.34
2023-01-25T08:33:47.663Z,3.47
2023-01-25T08:38:39.572Z,3.36
2023-01-25T08:43:30.951Z,3.38
2023-01-25T08:48:22.740Z,3.47
2023-01-25T08:53:18.885Z,3.27
2023-01-25T08:58:14.166Z,3.28
2023-01-25T09:03:08.777Z,3.41
2023-01-25T09:08:03.366Z,3.47
2023-01-25T09:12:59.425Z,3.43
2023-01-25T09:17:50.445Z,3.36
2023-01-25T09:22:44.753Z,3.30
2023-01-25T09:27:36.254Z,3.39
2023-01-25T09:32:33.483Z,3.46
2023-01-25T09:37:26.761Z,3.57
2023-01-25T09:42:47.998Z,3.56
2023-01-25T09:47:49.976Z,3.48
2023-01-25T09:53:09.955Z,3.45
2023-01-25T09:58:06.033Z,3.46
2023-01-25T10:03:07.606Z,3.44
2023-01-25T10:08:07.473Z,3.37
2023-01-25T10:13:03.364Z,3.44
2023-01-25T10:18:09.885Z,3.46
2023-01-25T10:23:34.245Z,3.46
2023-01-25T10:28:44.281Z,3.52
2023-01-25T10:33:47.723Z,3.47
2023-01-25T10:38:53.715Z,3.60
2023-01-25T10:44:08.525Z,3.47
2023-01-25T10:49:22.409Z,3.53
2023-01-25T10:54:29.346Z,3.54
2023-01-25T10:59:32.690Z,3.61
2023-01-25T11:04:48.977Z,3.51
2023-01-25T11:09:57.033Z,3.39
2023-01-25T11:14:57.836Z,3.43
2023-01-25T11:19:53.027Z,3.53
2023-01-25T11:24:52.548Z,3.58
2023-01-25T11:29:52.127Z,3.64
2023-01-25T11:35:07.657Z,3.72
2023-01-25T11:40:18.204Z,3.71
2023-01-25T11:45:49.962Z,3.68
2023-01-25T11:50:47.993Z,3.68
2023-01-25T11:55:51.158Z,3.62
2023-01-25T12:01:07.372Z,3.62
2023-01-25T12:06:13.087Z,3.66
2023-01-25T12:11:12.057Z,3.56
2023-01-25T12:16:29.980Z,3.57
2023-01-25T12:21:43.983Z,3.53
2023-01-25T12:26:50.693Z,3.69
2023-01-25T12:32:02.376Z,3.55
2023-01-25T12:36:59.959Z,3.58
2023-01-25T12:41:55.060Z,3.47
2023-01-25T12:46:55.115Z,3.56
2023-01-25T12:51:47.763Z,3.48
2023-01-25T12:56:47.115Z,3.63
2023-01-25T13:01:49.598Z,3.53
2023-01-25T13:07:00.274Z,3.57
2023-01-25T13:11:59.991Z,3.64
2023-01-25T13:17:08.487Z,3.62
2023-01-25T13:22:03.728Z,3.56
2023-01-25T13:27:30.843Z,3.47
2023-01-25T13:33:00.080Z,3.50
2023-01-25T13:38:05.082Z,3.50
2023-01-25T13:43:09.860Z,3.50
2023-01-25T13:48:10.502Z,3.55
2023-01-25T13:53:02.965Z,3.53
2023-01-25T13:57:57.419Z,3.46
2023-01-25T14:02:58.533Z,3.36
2023-01-25T14:07:51.606Z,3.34
2023-01-25T14:12:44.487Z,3.29
2023-01-25T14:17:39.535Z,3.28
2023-01-25T14:22:36.074Z,3.33
2023-01-25T14:27:28.196Z,3.34
2023-01-25T14:32:24.324Z,3.37
2023-01-25T14:37:21.538Z,3.40
2023-01-25T14:42:16.072Z,3.30
2023-01-25T14:47:27.807Z,3.37
2023-01-25T14:52:23.545Z,3.28
2023-01-25T14:57:34.400Z,3.28
2023-01-25T15:02:37.522Z,3.27
2023-01-25T15:07:47.594Z,3.31
2023-01-25T15:12:41.212Z,3.31
2023-01-25T15:17:48.513Z,3.28
2023-01-25T15:22:47.694Z,3.34
2023-01-25T15:27:43.813Z,3.40
2023-01-25T15:32:39.695Z,3.15
2023-01-25T15:37:33.584Z,3.19
2023-01-25T15:42:36.859Z,3.37
2023-01-25T15:47:34.660Z,3.34
2023-01-25T15:52:26.408Z,3.39
2023-01-25T15:57:28.994Z,3.38
2023-01-25T16:02:20.752Z,3.36
2023-01-25T16:07:33.454Z,3.31
2023-01-25T16:12:27.250Z,3.32
2023-01-25T16:17:25.786Z,3.31
2023-01-25T16:22:20.203Z,3.27
2023-01-25T16:27:27.027Z,3.30
2023-01-25T16:32:19.231Z,3.32
2023-01-25T16:37:10.380Z,3.34
2023-01-25T16:42:05.987Z,3.34
2023-01-25T16:46:58.936Z,3.28
2023-01-25T16:51:54.368Z,3.39
2023-01-25T16:56:46.805Z,3.23
2023-01-25T17:01:42.331Z,3.34
2023-01-25T17:06:35.642Z,3.34
2023-01-25T17:11:27.157Z,3.37
2023-01-25T17:16:18.689Z,3.36
2023-01-25T17:21:15.617Z,3.35
2023-01-25T17:26:08.303Z,3.34
2023-01-25T17:31:01.906Z,3.38
2023-01-25T17:35:58.852Z,3.33
2023-01-25T17:40:57.033Z,3.30
2023-01-25T17:45:50.598Z,3.23
2023-01-25T17:50:42.796Z,3.16
2023-01-25T17:55:40.337Z,3.13
2023-01-25T18:00:36.199Z,3.09
2023-01-25T18:05:30.180Z,3.08
2023-01-25T18:10:29.413Z,3.15
2023-01-25T18:15:24.169Z,3.14
2023-01-25T18:20:24.759Z,3.15
2023-01-25T18:25:34.464Z,3.16
2023-01-25T18:30:37.271Z,3.07
2023-01-25T18:35:32.841Z,3.06
2023-01-25T18:40:25.129Z,3.11
2023-01-25T18:45:17.200Z,3.07
2023-01-25T18:50:14.532Z,3.16
2023-01-25T18:55:09.699Z,3.16
2023-01-25T19:00:00.264Z,3.11
2023-01-25T19:04:50.439Z,3.13
2023-01-25T19:09:44.056Z,3.12
2023-01-25T19:14:41.498Z,3.15
2023-01-25T19:19:36.297Z,3.15
2023-01-25T19:24:28.470Z,3.16
2023-01-25T19:29:22.994Z,3.13
2023-01-25T19:34:17.591Z,3.15
2023-01-25T19:39:13.531Z,3.17
2023-01-25T19:44:07.891Z,3.06
2023-01-25T19:49:03.410Z,3.05
2023-01-25T19:54:01.239Z,3.00
2023-01-25T19:58:53.486Z,3.12
2023-01-25T20:03:47.956Z,3.14
2023-01-25T20:08:42.881Z,3.12
2023-01-25T20:13:39.870Z,3.12
2023-01-25T20:18:33.678Z,3.13
2023-01-25T20:23:25.524Z,3.01
2023-01-25T20:28:17.728Z,3.03
2023-01-25T20:33:10.898Z,3.11
2023-01-25T20:38:03.045Z,3.05
2023-01-25T20:42:58.681Z,3.14
2023-01-25T20:47:50.929Z,3.09
2023-01-25T20:52:57.643Z,3.16
2023-01-25T20:57:54.279Z,3.18
2023-01-25T21:02:50.128Z,3.23
2023-01-25T21:07:43.583Z,3.19
2023-01-25T21:12:36.922Z,3.04
2023-01-25T21:17:27.189Z,3.09
2023-01-25T21:22:19.620Z,3.15
2023-01-25T21:27:10.268Z,3.16
2023-01-25T21:32:06.250Z,3.21
2023-01-25T21:36:58.524Z,3.32
2023-01-25T21:41:50.558Z,3.26
2023-01-25T21:47:06.053Z,3.36
2023-01-25T21:52:02.578Z,3.40
2023-01-25T21:56:57.209Z,3.23
2023-01-25T22:01:50.693Z,3.35
2023-01-25T22:06:40.793Z,3.38
2023-01-25T22:11:35.363Z,3.36
2023-01-25T22:16:26.846Z,3.40
2023-01-25T22:21:24.244Z,3.38
2023-01-25T22:26:22.961Z,3.44
2023-01-25T22:31:17.583Z,3.38
2023-01-25T22:36:12.597Z,3.47
2023-01-25T22:41:09.031Z,3.50
2023-01-25T22:46:00.787Z,3.43
2023-01-25T22:50:53.644Z,3.26
2023-01-25T22:55:44.013Z,3.27
2023-01-25T23:00:34.706Z,3.32
2023-01-25T23:05:25.444Z,3.36
2023-01-25T23:10:20.140Z,3.21
2023-01-25T23:15:17.694Z,3.30
2023-01-25T23:20:10.008Z,3.28
2023-01-25T23:25:02.694Z,3.30
2023-01-25T23:29:56.433Z,3.29
2023-01-25T23:34:53.700Z,3.31
2023-01-25T23:39:45.920Z,3.34
2023-01-25T23:44:37.522Z,3.19
2023-01-25T23:49:32.766Z,3.31
2023-01-25T23:54:23.426Z,3.18
2023-01-25T23:59:17.883Z,3.25
